Time;durP1;ratioP1;P1;durP2;ratioP2;P2;SDS_P1;SDS_P2;PMS_P1;PMS_P2;Temp;Humidity;BMP_temperature;BMP_pressure;BME280_temperature;BME280_humidity;BME280_pressure;Samples;Min_cycle;Max_cycle;Signal;HPM_P1;HPM_P2
2022/01/31 04:48:08;;;;;;;13.77;4.00;;;3.80;99.90;;;;;;5200133;23;20051;-80
2022/01/31 04:50:35;;;;;;;11.70;3.60;;;3.70;99.90;;;;;;4920387;29;20083;-79
2022/01/31 04:53:03;;;;;;;10.70;3.40;;;3.70;99.90;;;;;;4914918;29;20140;-79
2022/01/31 04:55:30;;;;;;;11.70;3.75;;;3.80;99.90;;;;;;4923915;29;20155;-80
2022/01/31 04:57:58;;;;;;;11.02;3.75;;;3.70;99.90;;;;;;4914898;29;20052;-80
2022/01/31 05:00:26;;;;;;;11.55;3.40;;;3.80;99.90;;;;;;4923881;29;20116;-81
2022/01/31 05:02:55;;;;;;;12.02;3.58;;;3.70;99.90;;;;;;4925017;29;20044;-81
2022/01/31 05:05:23;;;;;;;9.40;3.53;;;3.80;99.90;;;;;;4924753;29;20048;-79
2022/01/31 05:07:54;;;;;;;12.18;3.55;;;3.80;99.90;;;;;;4923818;29;20048;-82
2022/01/31 05:10:27;;;;;;;11.68;3.75;;;3.80;99.90;;;;;;4922777;29;20048;-80
2022/01/31 05:12:55;;;;;;;8.65;3.15;;;3.90;99.90;;;;;;4922461;29;20083;-77
2022/01/31 05:15:22;;;;;;;11.18;3.42;;;3.80;99.90;;;;;;4921811;29;20099;-79
2022/01/31 05:17:51;;;;;;;9.18;3.35;;;3.90;99.90;;;;;;4920555;29;20128;-80
2022/01/31 05:20:19;;;;;;;14.98;3.33;;;3.90;99.90;;;;;;4920885;29;20048;-79
2022/01/31 05:22:47;;;;;;;8.77;2.78;;;3.90;99.90;;;;;;4920577;29;20569;-77
2022/01/31 05:25:14;;;;;;;9.98;2.97;;;3.90;99.90;;;;;;4922751;29;20143;-76
2022/01/31 05:27:41;;;;;;;9.60;3.50;;;4.00;99.90;;;;;;4904020;29;20281;-75
2022/01/31 05:30:10;;;;;;;11.25;2.90;;;3.90;99.90;;;;;;4913135;29;20493;-75
2022/01/31 05:32:37;;;;;;;11.07;3.10;;;3.90;99.90;;;;;;4920510;29;20131;-77
2022/01/31 05:35:05;;;;;;;9.32;2.70;;;4.00;99.90;;;;;;4920526;29;20139;-75
2022/01/31 05:37:33;;;;;;;8.15;2.60;;;4.00;99.90;;;;;;4920690;29;20127;-75
2022/01/31 05:40:01;;;;;;;9.23;2.85;;;4.00;99.90;;;;;;4921014;29;20139;-75
2022/01/31 05:42:28;;;;;;;8.90;2.83;;;4.00;99.90;;;;;;4921471;29;20111;-75
2022/01/31 05:44:55;;;;;;;9.98;2.80;;;4.00;99.90;;;;;;4921667;29;20151;-78
2022/01/31 05:47:23;;;;;;;10.82;2.83;;;4.10;99.90;;;;;;4921175;29;20585;-78
2022/01/31 05:49:50;;;;;;;8.40;2.63;;;4.10;99.90;;;;;;4920707;29;20477;-76
2022/01/31 05:52:17;;;;;;;11.05;2.80;;;4.10;99.90;;;;;;4921472;29;20135;-75
2022/01/31 05:54:45;;;;;;;8.98;2.80;;;4.20;99.90;;;;;;4919361;29;20481;-77
2022/01/31 05:57:13;;;;;;;12.30;3.17;;;4.20;99.90;;;;;;4919716;29;20067;-76
2022/01/31 05:59:41;;;;;;;10.57;2.70;;;4.20;99.90;;;;;;4920175;29;20135;-77
2022/01/31 06:02:09;;;;;;;8.02;2.47;;;4.30;99.80;;;;;;4919378;29;20478;-77
2022/01/31 06:04:36;;;;;;;8.48;2.72;;;4.30;99.80;;;;;;4920875;29;20048;-75
2022/01/31 06:07:04;;;;;;;11.40;2.80;;;4.30;99.70;;;;;;4921037;29;20111;-76
2022/01/31 06:09:32;;;;;;;9.73;2.55;;;4.40;99.60;;;;;;4921119;29;20135;-75
2022/01/31 06:12:02;;;;;;;9.23;2.45;;;4.40;99.80;;;;;;4921217;29;20139;-77
2022/01/31 06:14:31;;;;;;;9.43;2.80;;;4.40;99.50;;;;;;4920993;29;20052;-77
2022/01/31 06:16:59;;;;;;;11.10;2.83;;;4.40;99.50;;;;;;4920529;29;20249;-75
2022/01/31 06:19:26;;;;;;;5.43;2.45;;;4.40;99.40;;;;;;4920399;29;20055;-76
2022/01/31 06:21:53;;;;;;;7.93;2.40;;;4.40;99.50;;;;;;4919972;29;20123;-78
2022/01/31 06:24:20;;;;;;;9.30;2.78;;;4.40;99.30;;;;;;4921580;29;20485;-77
2022/01/31 06:26:49;;;;;;;7.93;2.35;;;4.50;99.30;;;;;;4922015;29;20135;-77
2022/01/31 06:29:16;;;;;;;8.60;2.63;;;4.50;99.40;;;;;;4918926;29;20048;-76
2022/01/31 06:31:44;;;;;;;9.88;2.80;;;4.50;99.30;;;;;;4919287;29;20089;-75
2022/01/31 06:34:12;;;;;;;6.28;2.30;;;4.50;99.30;;;;;;4919476;29;20131;-77
2022/01/31 06:36:39;;;;;;;9.23;2.63;;;4.60;99.60;;;;;;4919041;29;20416;-76
2022/01/31 06:39:07;;;;;;;9.35;2.53;;;4.60;99.40;;;;;;4919279;29;20049;-76
2022/01/31 06:41:35;;;;;;;9.77;3.13;;;4.60;99.50;;;;;;4919595;29;20056;-76
2022/01/31 06:44:02;;;;;;;8.93;2.70;;;4.60;99.70;;;;;;4919461;29;20060;-75
2022/01/31 06:46:29;;;;;;;10.48;2.83;;;4.60;99.90;;;;;;4919388;29;20131;-77
2022/01/31 06:48:57;;;;;;;8.98;2.40;;;4.60;99.90;;;;;;4919940;29;20127;-75
2022/01/31 06:51:24;;;;;;;9.23;2.47;;;4.60;99.90;;;;;;4919113;29;20138;-77
2022/01/31 06:53:51;;;;;;;10.05;2.83;;;4.60;99.90;;;;;;4919819;29;20131;-76
2022/01/31 06:56:28;;;;;;;8.48;2.65;;;4.60;99.90;;;;;;4919866;29;20147;-76
2022/01/31 06:58:55;;;;;;;11.20;2.55;;;4.60;99.90;;;;;;4919925;29;20394;-75
2022/01/31 07:01:25;;;;;;;9.63;2.80;;;4.60;99.90;;;;;;4919312;29;20600;-75
2022/01/31 07:03:54;;;;;;;8.00;2.50;;;4.60;99.90;;;;;;4919920;29;20086;-74
2022/01/31 07:06:23;;;;;;;8.40;2.83;;;4.60;99.90;;;;;;4919145;29;20060;-74
2022/01/31 07:08:51;;;;;;;11.25;2.95;;;4.50;99.90;;;;;;4921077;29;20052;-75
2022/01/31 07:11:22;;;;;;;10.00;2.85;;;4.50;99.90;;;;;;4920445;29;20055;-78
2022/01/31 07:13:53;;;;;;;8.68;3.22;;;4.50;99.90;;;;;;4920555;29;20048;-75
2022/01/31 07:16:20;;;;;;;9.45;2.92;;;4.50;99.90;;;;;;4920825;29;20048;-75
2022/01/31 07:18:52;;;;;;;7.13;2.60;;;4.40;99.90;;;;;;4919332;29;20554;-78
2022/01/31 07:21:19;;;;;;;9.77;2.95;;;4.40;99.90;;;;;;4920834;29;20051;-77
2022/01/31 07:24:06;;;;;;;8.85;2.83;;;4.40;99.90;;;;;;4920420;29;20090;-75
2022/01/31 07:26:33;;;;;;;11.02;3.10;;;4.30;99.90;;;;;;4919068;29;20062;-75
2022/01/31 07:29:00;;;;;;;9.02;2.80;;;4.30;99.90;;;;;;4921275;29;20068;-77
2022/01/31 07:31:27;;;;;;;10.20;3.28;;;4.30;99.90;;;;;;4919855;29;20135;-75
2022/01/31 07:33:54;;;;;;;8.45;2.78;;;4.30;99.90;;;;;;4918638;29;20143;-76
2022/01/31 07:36:22;;;;;;;11.75;3.03;;;4.30;99.90;;;;;;4919638;29;20052;-75
2022/01/31 07:38:50;;;;;;;9.30;2.78;;;4.30;99.90;;;;;;4922017;29;20104;-77
2022/01/31 07:41:17;;;;;;;9.25;2.95;;;4.40;99.90;;;;;;4920934;29;20534;-76
2022/01/31 07:43:45;;;;;;;10.95;3.00;;;4.40;99.90;;;;;;4922393;29;20139;-76
2022/01/31 07:46:13;;;;;;;9.45;3.30;;;4.30;99.90;;;;;;4919243;29;20053;-75
2022/01/31 07:48:40;;;;;;;8.13;3.10;;;4.30;99.90;;;;;;4918942;29;20082;-76
2022/01/31 07:51:13;;;;;;;13.52;3.05;;;4.30;99.90;;;;;;4920712;29;20052;-75
2022/01/31 07:53:42;;;;;;;7.05;2.95;;;4.30;99.90;;;;;;4918999;29;20134;-75
2022/01/31 07:56:11;;;;;;;9.32;3.08;;;4.30;99.90;;;;;;4919122;29;20067;-75
2022/01/31 07:58:39;;;;;;;10.70;3.10;;;4.30;99.90;;;;;;4917620;29;20060;-75
2022/01/31 08:01:07;;;;;;;7.63;2.65;;;4.30;99.90;;;;;;4898552;29;20049;-76
2022/01/31 08:03:35;;;;;;;8.70;3.05;;;4.30;99.90;;;;;;4898942;29;20096;-75
2022/01/31 08:06:03;;;;;;;8.55;2.72;;;4.30;99.90;;;;;;4899248;29;20600;-74
2022/01/31 08:08:31;;;;;;;7.03;2.95;;;4.30;99.90;;;;;;4900652;29;20060;-75
2022/01/31 08:11:01;;;;;;;9.63;3.10;;;4.30;99.90;;;;;;4900394;29;20074;-76
2022/01/31 08:13:29;;;;;;;10.38;3.10;;;4.30;99.90;;;;;;4899432;29;20052;-74
2022/01/31 08:16:09;;;;;;;8.15;2.80;;;4.30;99.90;;;;;;4899375;29;20052;-77
2022/01/31 08:18:39;;;;;;;8.30;3.13;;;4.30;99.90;;;;;;4898467;29;20135;-77
2022/01/31 08:21:07;;;;;;;10.10;3.00;;;4.30;99.90;;;;;;4898827;29;20056;-75
2022/01/31 08:23:35;;;;;;;8.75;2.67;;;4.30;99.90;;;;;;4898975;29;20143;-76
2022/01/31 08:26:04;;;;;;;8.77;3.25;;;4.30;99.90;;;;;;4898647;29;20088;-76
2022/01/31 08:28:40;;;;;;;6.00;2.92;;;4.30;99.90;;;;;;4897964;29;20144;-75
2022/01/31 08:31:13;;;;;;;6.88;3.17;;;4.30;99.90;;;;;;4898204;29;20049;-78
2022/01/31 08:33:45;;;;;;;7.93;2.67;;;4.20;99.90;;;;;;4898202;29;20394;-75
2022/01/31 08:36:13;;;;;;;10.02;3.15;;;4.30;99.90;;;;;;4898025;29;20144;-74
2022/01/31 08:38:43;;;;;;;7.13;2.97;;;4.30;99.90;;;;;;4898474;29;20143;-75
2022/01/31 08:41:13;;;;;;;6.97;2.85;;;4.20;99.90;;;;;;4898239;29;20048;-76
2022/01/31 08:43:42;;;;;;;8.35;2.88;;;4.30;99.90;;;;;;4897783;29;20387;-77
2022/01/31 08:46:12;;;;;;;16.98;7.75;;;4.30;99.90;;;;;;4897773;29;20474;-75
2022/01/31 08:48:40;;;;;;;12.38;5.20;;;4.30;99.90;;;;;;4897763;29;20422;-75
2022/01/31 08:51:09;;;;;;;9.90;3.22;;;4.30;99.90;;;;;;4897716;29;20388;-75
2022/01/31 08:53:37;;;;;;;7.15;3.08;;;4.30;99.90;;;;;;4897681;29;20499;-75
2022/01/31 08:56:08;;;;;;;5.57;2.55;;;4.30;99.90;;;;;;4898720;29;20557;-76
2022/01/31 08:58:41;;;;;;;6.10;2.40;;;4.30;99.90;;;;;;4916674;29;20136;-76
2022/01/31 09:01:12;;;;;;;7.05;2.83;;;4.30;99.90;;;;;;4919887;29;20056;-76
2022/01/31 09:03:55;;;;;;;5.25;2.50;;;4.30;99.90;;;;;;4920625;29;20052;-78
2022/01/31 09:06:24;;;;;;;5.18;2.45;;;4.30;99.90;;;;;;4920634;29;20052;-76
2022/01/31 09:08:52;;;;;;;4.95;2.35;;;4.30;99.90;;;;;;4921275;29;20135;-77
2022/01/31 09:11:20;;;;;;;4.65;2.17;;;4.30;99.90;;;;;;4921134;29;20048;-78
2022/01/31 09:13:47;;;;;;;7.13;2.40;;;4.30;99.90;;;;;;4920910;29;20123;-76
2022/01/31 09:16:16;;;;;;;6.47;2.70;;;4.30;99.90;;;;;;4920994;29;20086;-77
2022/01/31 09:18:44;;;;;;;6.45;2.55;;;4.30;99.90;;;;;;4921065;29;20226;-76
2022/01/31 09:21:14;;;;;;;6.30;2.30;;;4.30;99.90;;;;;;4921240;29;20135;-77
2022/01/31 09:23:42;;;;;;;4.72;1.92;;;4.30;99.90;;;;;;4920535;29;20130;-78
2022/01/31 09:26:09;;;;;;;3.55;1.67;;;4.30;99.90;;;;;;4920591;29;20088;-78
2022/01/31 09:28:37;;;;;;;4.65;2.40;;;4.30;99.90;;;;;;4920613;29;20131;-76
2022/01/31 09:31:04;;;;;;;5.55;2.00;;;4.30;99.90;;;;;;4920636;29;20200;-75
2022/01/31 09:33:33;;;;;;;4.03;1.63;;;4.40;99.90;;;;;;4920616;29;20052;-79
2022/01/31 09:36:00;;;;;;;4.25;1.77;;;4.30;99.90;;;;;;4920112;29;20048;-77
2022/01/31 09:38:28;;;;;;;4.85;1.65;;;4.30;99.90;;;;;;4920681;29;20529;-78
2022/01/31 09:40:56;;;;;;;4.22;1.63;;;4.30;99.90;;;;;;4920094;29;20052;-75
2022/01/31 09:43:41;;;;;;;2.42;1.20;;;4.40;99.90;;;;;;4920824;29;20139;-76
2022/01/31 09:46:32;;;;;;;2.63;1.00;;;4.40;99.90;;;;;;4920265;29;20056;-76
2022/01/31 09:49:00;;;;;;;2.20;0.80;;;4.40;99.90;;;;;;4919962;29;20056;-76
2022/01/31 09:51:28;;;;;;;1.95;0.80;;;4.50;99.90;;;;;;4919648;29;20084;-76
2022/01/31 09:53:59;;;;;;;4.55;2.25;;;4.50;99.90;;;;;;4920289;29;20131;-78
2022/01/31 09:56:31;;;;;;;3.05;1.00;;;4.50;99.90;;;;;;4920398;29;20048;-77
2022/01/31 09:59:00;;;;;;;3.00;1.10;;;4.50;99.90;;;;;;4919863;29;20135;-77
2022/01/31 10:01:30;;;;;;;1.92;0.80;;;4.60;99.90;;;;;;4919223;29;20196;-78
2022/01/31 10:04:01;;;;;;;1.80;0.70;;;4.70;99.90;;;;;;4918937;29;20086;-77
2022/01/31 10:06:31;;;;;;;1.77;0.77;;;4.80;99.90;;;;;;4919368;29;20048;-76
2022/01/31 10:09:08;;;;;;;2.42;0.90;;;4.80;99.90;;;;;;4919304;29;20147;-79
2022/01/31 10:11:43;;;;;;;1.83;0.80;;;4.90;99.90;;;;;;4918404;29;20502;-79
2022/01/31 10:17:07;;;;;;;3.67;1.10;;;5.00;99.90;;;;;;4919014;29;20199;-77
2022/01/31 10:19:45;;;;;;;3.00;0.90;;;5.10;99.90;;;;;;4918939;29;20158;-75
2022/01/31 10:22:14;;;;;;;2.60;0.80;;;5.20;99.90;;;;;;4918762;29;20132;-78
2022/01/31 10:24:44;;;;;;;3.70;1.20;;;5.20;99.90;;;;;;4918668;29;20133;-76
2022/01/31 10:27:15;;;;;;;19.83;7.40;;;5.30;99.90;;;;;;4918672;29;20155;-74
2022/01/31 10:29:46;;;;;;;5.28;1.83;;;5.30;99.90;;;;;;4918767;29;20515;-76
2022/01/31 10:32:18;;;;;;;2.53;1.02;;;5.40;99.90;;;;;;4918926;29;20144;-76
2022/01/31 10:34:54;;;;;;;3.13;1.02;;;5.40;99.90;;;;;;4918863;29;20091;-75
2022/01/31 10:37:23;;;;;;;2.47;0.90;;;5.40;99.90;;;;;;4918321;29;20052;-79
2022/01/31 10:54:38;;;;;;;3.50;1.17;;;5.50;99.90;;;;;;4918904;29;20048;-77
2022/01/31 10:57:08;;;;;;;4.63;1.10;;;5.50;99.90;;;;;;4918011;29;20144;-75
2022/01/31 10:59:38;;;;;;;3.20;1.17;;;5.60;99.90;;;;;;4918503;29;20300;-76
2022/01/31 11:02:08;;;;;;;3.17;1.00;;;5.70;99.90;;;;;;4918249;29;20130;-79
2022/01/31 11:04:38;;;;;;;4.13;1.20;;;5.70;99.90;;;;;;4918385;29;20052;-75
2022/01/31 11:07:10;;;;;;;4.35;1.60;;;5.80;99.90;;;;;;4918454;29;20139;-76
2022/01/31 11:09:38;;;;;;;3.25;1.10;;;5.80;99.90;;;;;;4918760;29;20135;-75
2022/01/31 11:12:07;;;;;;;5.20;1.20;;;5.90;99.90;;;;;;4918625;29;20564;-76
2022/01/31 11:14:37;;;;;;;3.03;1.13;;;5.90;99.80;;;;;;4918253;29;20126;-76
2022/01/31 11:17:10;;;;;;;5.13;1.40;;;5.90;99.90;;;;;;4918223;29;20094;-77
2022/01/31 11:19:39;;;;;;;4.30;1.30;;;6.00;99.50;;;;;;4918339;29;20454;-76
2022/01/31 11:22:11;;;;;;;4.63;1.20;;;6.00;99.70;;;;;;4917645;29;20083;-73
2022/01/31 11:24:44;;;;;;;4.70;1.38;;;6.00;99.00;;;;;;4917986;29;20135;-78
2022/01/31 11:27:14;;;;;;;4.80;1.33;;;6.00;98.80;;;;;;4917672;29;20053;-78
2022/01/31 11:29:45;;;;;;;3.33;1.00;;;6.00;98.60;;;;;;4918224;29;20120;-75
2022/01/31 11:32:13;;;;;;;3.83;1.23;;;6.00;98.40;;;;;;4918528;29;20083;-74
2022/01/31 11:34:43;;;;;;;5.28;1.35;;;6.00;98.60;;;;;;4918367;29;20142;-76
2022/01/31 11:37:16;;;;;;;3.22;1.27;;;6.00;98.70;;;;;;4917619;29;20079;-76
2022/01/31 11:39:47;;;;;;;3.25;1.13;;;6.00;98.40;;;;;;4917786;29;20084;-76
2022/01/31 11:42:18;;;;;;;5.28;1.15;;;6.00;98.10;;;;;;4918080;29;20107;-76
2022/01/31 11:44:55;;;;;;;3.85;0.98;;;6.00;97.70;;;;;;4917689;29;20087;-76
2022/01/31 11:47:24;;;;;;;4.43;1.00;;;6.00;97.30;;;;;;4917446;29;20131;-76
2022/01/31 11:49:55;;;;;;;4.43;1.00;;;6.00;96.70;;;;;;4918797;29;20048;-76
2022/01/31 11:52:26;;;;;;;4.50;0.98;;;5.90;96.70;;;;;;4918484;29;20159;-75
2022/01/31 11:54:57;;;;;;;4.10;1.30;;;5.90;97.30;;;;;;4917903;29;20048;-77
2022/01/31 11:57:28;;;;;;;4.45;1.33;;;5.90;97.40;;;;;;4917562;29;20410;-76
2022/01/31 11:59:57;;;;;;;4.25;1.00;;;5.80;97.70;;;;;;4917670;29;20059;-75
2022/01/31 12:02:30;;;;;;;4.68;1.20;;;5.80;97.10;;;;;;4917637;29;20573;-79
2022/01/31 12:05:04;;;;;;;5.20;1.20;;;5.80;97.60;;;;;;4912025;29;20072;-79
2022/01/31 12:07:46;;;;;;;2.70;0.75;;;5.80;97.10;;;;;;4912064;29;20130;-77
2022/01/31 12:10:22;;;;;;;5.30;0.90;;;5.80;97.40;;;;;;4916441;29;20052;-79
2022/01/31 12:12:54;;;;;;;4.18;1.08;;;5.80;97.70;;;;;;4916888;29;20403;-77
2022/01/31 12:24:43;;;;;;;3.28;0.95;;;5.70;97.60;;;;;;4897105;29;20048;-81
2022/01/31 12:27:13;;;;;;;5.65;1.30;;;5.70;97.90;;;;;;4916788;29;20052;-82
2022/01/31 12:29:43;;;;;;;4.45;1.00;;;5.70;98.20;;;;;;4909565;29;20048;-79
2022/01/31 12:32:16;;;;;;;4.68;1.00;;;5.60;97.40;;;;;;4898494;29;20121;-79
2022/01/31 12:34:49;;;;;;;3.42;0.90;;;5.60;97.30;;;;;;4899785;29;20393;-78
2022/01/31 12:37:31;;;;;;;2.60;0.90;;;5.60;96.90;;;;;;4902158;29;20487;-79
2022/01/31 12:40:12;;;;;;;4.07;1.10;;;5.50;97.60;;;;;;4912485;29;20048;-78
2022/01/31 12:45:54;;;;;;;4.80;1.05;;;5.50;97.00;;;;;;4911046;29;20048;-77
2022/01/31 12:48:23;;;;;;;3.97;0.90;;;5.50;97.00;;;;;;4920124;29;20124;-80
2022/01/31 12:51:07;;;;;;;5.13;1.00;;;5.50;97.20;;;;;;4921180;29;20056;-76
2022/01/31 12:53:47;;;;;;;4.30;0.82;;;5.50;96.90;;;;;;4902267;29;20059;-77
2022/01/31 12:56:30;;;;;;;4.20;1.02;;;5.50;97.00;;;;;;4902664;29;20052;-78
2022/01/31 12:59:13;;;;;;;3.53;0.95;;;5.50;97.20;;;;;;4901566;29;20059;-79
2022/01/31 13:01:42;;;;;;;6.30;1.25;;;5.50;97.50;;;;;;4902075;29;20131;-82
2022/01/31 13:04:13;;;;;;;2.97;1.23;;;5.40;97.90;;;;;;4902472;29;20585;-81
2022/01/31 13:06:44;;;;;;;4.75;0.98;;;5.40;98.00;;;;;;4902340;29;20045;-79
2022/01/31 13:09:19;;;;;;;4.28;0.88;;;5.30;98.70;;;;;;4902087;29;20052;-78
2022/01/31 13:11:54;;;;;;;4.78;0.80;;;5.30;99.10;;;;;;4902413;29;20053;-78
2022/01/31 13:14:24;;;;;;;4.38;1.20;;;5.30;99.20;;;;;;4902007;29;20053;-75
2022/01/31 13:17:00;;;;;;;2.97;0.88;;;5.30;99.70;;;;;;4901190;29;20048;-77
2022/01/31 13:19:31;;;;;;;4.05;1.02;;;5.20;99.80;;;;;;4901366;29;20048;-78
2022/01/31 13:22:00;;;;;;;6.28;1.40;;;5.20;99.90;;;;;;4901420;29;20052;-79
2022/01/31 13:24:38;;;;;;;3.60;0.90;;;5.20;99.90;;;;;;4901658;29;20095;-77
2022/01/31 13:27:10;;;;;;;4.55;1.00;;;5.20;99.90;;;;;;4901694;29;20229;-78
2022/01/31 13:29:41;;;;;;;4.22;1.10;;;5.10;99.90;;;;;;4900377;29;20095;-79
2022/01/31 13:32:31;;;;;;;5.22;1.27;;;5.10;99.90;;;;;;4911218;29;20127;-75
2022/01/31 13:35:02;;;;;;;5.00;1.00;;;5.10;99.90;;;;;;4919282;29;20482;-79
2022/01/31 13:37:52;;;;;;;7.05;1.00;;;5.00;99.90;;;;;;4919878;29;20131;-79
2022/01/31 13:40:24;;;;;;;6.25;1.00;;;5.00;99.90;;;;;;4919950;29;20048;-78
2022/01/31 13:43:14;;;;;;;5.00;1.20;;;4.90;99.90;;;;;;4919857;29;20059;-80
2022/01/31 13:45:52;;;;;;;6.50;1.35;;;4.90;99.90;;;;;;4918915;29;20080;-78
2022/01/31 13:48:33;;;;;;;6.03;1.38;;;4.90;99.90;;;;;;4919728;29;20060;-78
2022/01/31 13:51:02;;;;;;;5.32;1.27;;;4.90;99.90;;;;;;4921098;29;20155;-76
2022/01/31 13:53:36;;;;;;;3.90;0.90;;;4.80;99.90;;;;;;4921126;29;20139;-75
2022/01/31 13:56:06;;;;;;;4.38;1.17;;;4.90;99.90;;;;;;4920312;29;20383;-76
2022/01/31 13:58:39;;;;;;;5.28;1.38;;;4.90;99.90;;;;;;4917769;29;20115;-77
2022/01/31 14:01:06;;;;;;;5.22;1.38;;;5.00;99.90;;;;;;4905961;29;20139;-80
2022/01/31 14:03:41;;;;;;;4.22;1.10;;;5.00;99.90;;;;;;4903922;29;20139;-78
2022/01/31 14:06:11;;;;;;;4.80;1.20;;;5.00;99.90;;;;;;4904950;29;20135;-77
2022/01/31 14:08:43;;;;;;;5.22;1.15;;;5.00;99.90;;;;;;4901334;29;20504;-76
2022/01/31 14:11:17;;;;;;;5.00;1.15;;;5.00;99.90;;;;;;4903711;29;20143;-79
2022/01/31 14:13:53;;;;;;;6.10;1.50;;;5.00;99.90;;;;;;4888215;29;20136;-77
2022/01/31 14:16:24;;;;;;;5.78;1.60;;;5.00;99.90;;;;;;4903811;29;20088;-78
2022/01/31 14:18:53;;;;;;;3.42;1.05;;;5.00;99.90;;;;;;4902254;29;20108;-78
2022/01/31 14:21:22;;;;;;;5.97;1.10;;;5.00;99.90;;;;;;4903846;29;20113;-82
2022/01/31 14:23:52;;;;;;;4.43;1.30;;;5.00;99.90;;;;;;4902712;29;20108;-78
2022/01/31 14:26:24;;;;;;;3.40;1.10;;;5.00;99.90;;;;;;4900921;29;20505;-78
2022/01/31 14:28:55;;;;;;;4.90;1.10;;;5.00;99.90;;;;;;4901763;29;20063;-80
2022/01/31 14:31:32;;;;;;;6.03;1.52;;;4.90;99.90;;;;;;4906492;29;20201;-80
2022/01/31 14:34:06;;;;;;;4.13;1.35;;;4.90;99.90;;;;;;4918635;29;20052;-81
2022/01/31 14:36:40;;;;;;;3.35;1.20;;;4.90;99.90;;;;;;4918965;29;20458;-80
2022/01/31 14:39:24;;;;;;;5.95;1.20;;;4.90;99.90;;;;;;4918422;29;20581;-77
2022/01/31 14:42:02;;;;;;;3.87;1.43;;;4.90;99.90;;;;;;4918952;29;20569;-79
2022/01/31 14:47:21;;;;;;;6.95;1.30;;;4.90;99.90;;;;;;4919539;29;20066;-81
2022/01/31 14:49:51;;;;;;;7.32;1.70;;;4.90;99.90;;;;;;4919380;29;20506;-82
2022/01/31 14:52:18;;;;;;;5.20;1.25;;;4.90;99.90;;;;;;4919608;29;20052;-84
2022/01/31 14:55:02;;;;;;;4.57;1.23;;;4.80;99.90;;;;;;4919659;29;20601;-83
2022/01/31 14:57:29;;;;;;;3.40;1.35;;;4.80;99.90;;;;;;4919647;29;20048;-81
2022/01/31 14:59:58;;;;;;;6.00;1.67;;;4.80;99.90;;;;;;4918115;29;20471;-82
2022/01/31 15:02:25;;;;;;;4.95;1.20;;;4.80;99.90;;;;;;4904827;29;20116;-82
2022/01/31 15:04:53;;;;;;;4.03;1.00;;;4.80;99.90;;;;;;4899996;29;20056;-82
2022/01/31 15:07:22;;;;;;;7.38;1.73;;;4.80;99.90;;;;;;4900176;29;20132;-78
2022/01/31 15:09:49;;;;;;;6.15;1.10;;;4.80;99.90;;;;;;4901220;29;20052;-80
2022/01/31 15:12:16;;;;;;;7.10;1.30;;;4.80;99.90;;;;;;4901317;29;20484;-81
2022/01/31 15:14:45;;;;;;;4.80;1.15;;;4.70;99.90;;;;;;4902132;29;20498;-78
2022/01/31 15:17:13;;;;;;;3.50;1.20;;;4.70;99.90;;;;;;4900998;29;20384;-76
2022/01/31 15:19:41;;;;;;;4.95;1.05;;;4.70;99.90;;;;;;4901212;29;20143;-76
2022/01/31 15:22:10;;;;;;;3.95;1.20;;;4.70;99.90;;;;;;4901737;29;20053;-74
2022/01/31 15:24:38;;;;;;;6.68;1.10;;;4.60;99.90;;;;;;4902146;29;20071;-76
2022/01/31 15:27:07;;;;;;;6.05;1.10;;;4.60;99.90;;;;;;4900620;29;20044;-77
2022/01/31 15:29:35;;;;;;;5.35;1.10;;;4.50;99.90;;;;;;4903624;29;20099;-76
2022/01/31 15:32:03;;;;;;;5.10;1.48;;;4.50;99.90;;;;;;4905391;29;20048;-81
2022/01/31 15:34:32;;;;;;;5.40;1.10;;;4.40;99.90;;;;;;4905306;29;20049;-79
2022/01/31 15:37:02;;;;;;;6.60;1.40;;;4.40;99.90;;;;;;4904095;29;20119;-78
2022/01/31 15:39:29;;;;;;;6.35;1.30;;;4.40;99.90;;;;;;4911649;29;20145;-79
2022/01/31 15:42:00;;;;;;;5.32;1.38;;;4.40;99.90;;;;;;4923926;29;20531;-78
2022/01/31 15:44:29;;;;;;;11.52;3.38;;;4.30;99.90;;;;;;4922971;29;20498;-79
2022/01/31 15:46:58;;;;;;;6.20;1.30;;;4.30;99.90;;;;;;4921902;29;20059;-77
2022/01/31 15:49:25;;;;;;;12.80;4.90;;;4.30;99.90;;;;;;4920414;29;20055;-78
2022/01/31 15:51:53;;;;;;;7.35;1.92;;;4.40;99.90;;;;;;4919665;29;20139;-79
2022/01/31 15:54:20;;;;;;;6.00;1.40;;;4.30;99.90;;;;;;4920754;29;20132;-78
2022/01/31 15:56:47;;;;;;;5.78;1.65;;;4.30;99.90;;;;;;4919917;29;20052;-80
2022/01/31 15:59:15;;;;;;;6.68;1.35;;;4.30;99.90;;;;;;4910913;29;20132;-75
2022/01/31 16:01:42;;;;;;;6.43;1.40;;;4.20;99.90;;;;;;4913992;29;20140;-75
2022/01/31 16:04:09;;;;;;;6.30;1.35;;;4.20;99.90;;;;;;4912797;29;20083;-77
2022/01/31 16:06:38;;;;;;;3.92;1.20;;;4.20;99.90;;;;;;4914159;29;20051;-76
2022/01/31 16:09:07;;;;;;;7.10;1.50;;;4.20;99.90;;;;;;4922539;29;20048;-79
2022/01/31 16:11:34;;;;;;;6.25;1.50;;;4.10;99.90;;;;;;4924724;29;20131;-76
2022/01/31 16:14:09;;;;;;;6.07;1.40;;;4.10;99.90;;;;;;4925231;29;20051;-76
2022/01/31 16:16:37;;;;;;;6.18;1.48;;;4.10;99.90;;;;;;4924653;29;20111;-76
2022/01/31 16:19:04;;;;;;;5.55;1.38;;;4.10;99.90;;;;;;4925465;29;20119;-77
2022/01/31 16:21:32;;;;;;;3.95;1.10;;;4.00;99.90;;;;;;4926587;29;20165;-78
2022/01/31 16:24:00;;;;;;;4.75;1.38;;;4.00;99.90;;;;;;4909801;29;20053;-77
2022/01/31 16:26:30;;;;;;;6.13;1.38;;;4.10;99.90;;;;;;4903852;29;20092;-77
2022/01/31 16:28:57;;;;;;;5.95;1.42;;;4.00;99.90;;;;;;4903807;29;20131;-77
2022/01/31 16:31:24;;;;;;;6.45;1.35;;;4.00;99.90;;;;;;4903240;29;20521;-76
2022/01/31 16:33:53;;;;;;;5.25;1.30;;;4.00;99.90;;;;;;4903732;29;20048;-76
2022/01/31 16:36:21;;;;;;;6.20;1.45;;;4.00;99.90;;;;;;4902648;29;20135;-75
2022/01/31 16:38:49;;;;;;;5.25;1.40;;;3.90;99.90;;;;;;4902564;29;20048;-74
2022/01/31 16:41:16;;;;;;;7.38;1.40;;;3.90;99.90;;;;;;4902470;29;20091;-75
2022/01/31 16:43:46;;;;;;;4.55;1.35;;;3.90;99.90;;;;;;4901533;29;20139;-77
2022/01/31 16:46:13;;;;;;;5.93;1.40;;;3.90;99.90;;;;;;4902043;29;20048;-77
2022/01/31 16:48:42;;;;;;;4.97;1.40;;;3.90;99.90;;;;;;4911891;29;20151;-76
2022/01/31 16:51:09;;;;;;;7.20;1.50;;;3.90;99.90;;;;;;4915511;29;20104;-75
2022/01/31 16:53:36;;;;;;;7.82;1.63;;;3.90;99.90;;;;;;4911934;29;20096;-76
2022/01/31 16:56:03;;;;;;;8.32;1.67;;;4.00;99.90;;;;;;4935970;29;20135;-77
2022/01/31 16:58:31;;;;;;;6.57;1.58;;;3.90;99.90;;;;;;4920674;29;20136;-78
2022/01/31 17:01:00;;;;;;;5.45;1.60;;;3.90;99.90;;;;;;4920939;29;20120;-81
2022/01/31 17:03:28;;;;;;;5.43;1.50;;;3.90;99.90;;;;;;4921355;29;20139;-75
2022/01/31 17:05:55;;;;;;;5.18;1.40;;;3.90;99.90;;;;;;4921456;29;20392;-76
2022/01/31 17:08:22;;;;;;;5.10;1.40;;;3.90;99.90;;;;;;4921011;29;20406;-75
2022/01/31 17:10:50;;;;;;;6.03;1.27;;;3.80;99.90;;;;;;4920050;29;20082;-77
2022/01/31 17:13:17;;;;;;;6.97;1.80;;;3.80;99.90;;;;;;4920903;29;20481;-77
2022/01/31 17:15:45;;;;;;;6.30;2.00;;;3.80;99.90;;;;;;4920310;29;20090;-77
2022/01/31 17:18:13;;;;;;;8.82;2.13;;;3.80;99.90;;;;;;4920136;29;20044;-76
2022/01/31 17:20:40;;;;;;;5.85;1.60;;;3.70;99.90;;;;;;4919082;29;20080;-75
2022/01/31 17:23:07;;;;;;;5.18;1.45;;;3.70;99.90;;;;;;4918623;29;20200;-78
2022/01/31 17:25:34;;;;;;;6.75;1.70;;;3.80;99.90;;;;;;4919609;29;20058;-77
2022/01/31 17:28:02;;;;;;;7.03;2.10;;;3.80;99.90;;;;;;4920020;29;20055;-75
2022/01/31 17:30:29;;;;;;;5.15;1.70;;;3.80;99.90;;;;;;4919580;29;20410;-74
2022/01/31 17:32:56;;;;;;;8.05;2.10;;;3.70;99.90;;;;;;4919755;29;20487;-75
2022/01/31 17:35:27;;;;;;;7.88;2.00;;;3.80;99.90;;;;;;4915758;29;20052;-75
2022/01/31 17:37:54;;;;;;;7.75;2.28;;;3.80;99.90;;;;;;4919761;29;20095;-75
2022/01/31 17:40:21;;;;;;;6.50;1.48;;;3.80;99.90;;;;;;4920773;29;20127;-75
2022/01/31 17:42:54;;;;;;;9.50;1.65;;;3.80;99.90;;;;;;4920943;29;20462;-75
2022/01/31 17:45:23;;;;;;;8.20;1.98;;;3.80;99.90;;;;;;4919799;29;20052;-79
2022/01/31 17:47:50;;;;;;;11.80;2.78;;;3.80;99.90;;;;;;4920484;29;20578;-80
2022/01/31 17:50:18;;;;;;;7.75;2.00;;;3.80;99.90;;;;;;4919816;29;20139;-78
2022/01/31 17:52:47;;;;;;;6.85;1.65;;;3.80;99.90;;;;;;4896858;29;20059;-77
2022/01/31 17:55:15;;;;;;;7.53;1.85;;;3.80;99.90;;;;;;4912359;29;20139;-74
2022/01/31 17:57:43;;;;;;;7.35;1.70;;;3.80;99.90;;;;;;4919296;29;20155;-74
2022/01/31 18:00:19;;;;;;;6.35;1.75;;;3.80;99.90;;;;;;4916991;29;20135;-75
2022/01/31 18:02:46;;;;;;;9.05;1.77;;;3.80;99.90;;;;;;4928507;29;20478;-74
2022/01/31 18:05:13;;;;;;;10.73;3.47;;;3.80;99.90;;;;;;4938812;29;20143;-76
2022/01/31 18:07:41;;;;;;;7.18;2.22;;;3.90;99.90;;;;;;4938297;29;20052;-73
2022/01/31 18:10:10;;;;;;;6.90;2.25;;;3.90;99.90;;;;;;4939548;29;20138;-74
2022/01/31 18:12:37;;;;;;;8.48;2.22;;;3.90;99.90;;;;;;4935596;29;20127;-75
2022/01/31 18:15:09;;;;;;;7.57;2.08;;;3.90;99.90;;;;;;4921260;29;20087;-75
2022/01/31 18:17:36;;;;;;;11.00;1.90;;;3.90;99.90;;;;;;4921913;29;20044;-74
2022/01/31 18:20:04;;;;;;;6.90;2.03;;;3.90;99.90;;;;;;4920081;29;20123;-77
2022/01/31 18:22:32;;;;;;;10.75;2.00;;;3.90;99.90;;;;;;4920589;29;20040;-75
2022/01/31 18:24:59;;;;;;;7.03;1.40;;;3.90;99.90;;;;;;4920038;29;20143;-75
2022/01/31 18:27:28;;;;;;;6.13;1.75;;;3.90;99.90;;;;;;4922087;29;20051;-74
2022/01/31 18:29:55;;;;;;;11.52;2.60;;;3.90;99.90;;;;;;4919972;29;20102;-76